sensor_id;sensor_type;location;lat;lon;timestamp;temperature;humidity
14405;DHT22;14983;50.866;4.304;2022-07-26T00:01:41;17.10;99.90
14405;DHT22;14983;50.866;4.304;2022-07-26T00:04:14;16.90;99.90
14405;DHT22;14983;50.866;4.304;2022-07-26T00:06:44;17.00;99.90
14405;DHT22;14983;50.866;4.304;2022-07-26T00:09:11;17.00;99.90
14405;DHT22;14983;50.866;4.304;2022-07-26T00:11:41;17.10;99.90
14405;DHT22;14983;50.866;4.304;2022-07-26T00:14:10;17.10;99.90
14405;DHT22;14983;50.866;4.304;2022-07-26T00:16:37;17.10;99.90
14405;DHT22;14983;50.866;4.304;2022-07-26T00:19:06;17.10;99.90
14405;DHT22;14983;50.866;4.304;2022-07-26T00:21:39;17.00;99.90
14405;DHT22;14983;50.866;4.304;2022-07-26T00:24:08;17.00;99.90
14405;DHT22;14983;50.866;4.304;2022-07-26T00:26:37;16.90;99.90
14405;DHT22;14983;50.866;4.304;2022-07-26T00:29:04;16.90;99.90
14405;DHT22;14983;50.866;4.304;2022-07-26T00:31:35;16.90;99.90
14405;DHT22;14983;50.866;4.304;2022-07-26T00:34:02;16.00;99.90
14405;DHT22;14983;50.866;4.304;2022-07-26T00:36:35;16.90;99.90
14405;DHT22;14983;50.866;4.304;2022-07-26T00:39:03;16.90;99.90
14405;DHT22;14983;50.866;4.304;2022-07-26T00:41:33;16.90;99.90
14405;DHT22;14983;50.866;4.304;2022-07-26T00:44:07;16.90;99.90
14405;DHT22;14983;50.866;4.304;2022-07-26T00:46:40;16.80;99.90
14405;DHT22;14983;50.866;4.304;2022-07-26T00:49:13;16.90;99.90
14405;DHT22;14983;50.866;4.304;2022-07-26T00:51:43;16.80;99.90
14405;DHT22;14983;50.866;4.304;2022-07-26T00:54:16;16.80;99.90
14405;DHT22;14983;50.866;4.304;2022-07-26T00:56:46;17.10;99.90
14405;DHT22;14983;50.866;4.304;2022-07-26T00:59:15;16.90;99.90
14405;DHT22;14983;50.866;4.304;2022-07-26T01:01:43;16.80;99.90
14405;DHT22;14983;50.866;4.304;2022-07-26T01:04:11;16.90;99.90
14405;DHT22;14983;50.866;4.304;2022-07-26T01:06:41;16.80;99.90
14405;DHT22;14983;50.866;4.304;2022-07-26T01:09:11;16.90;99.90
14405;DHT22;14983;50.866;4.304;2022-07-26T01:11:40;16.90;99.90
14405;DHT22;14983;50.866;4.304;2022-07-26T01:14:19;16.90;99.90
14405;DHT22;14983;50.866;4.304;2022-07-26T01:16:48;17.00;99.90
14405;DHT22;14983;50.866;4.304;2022-07-26T01:19:19;17.00;99.90
14405;DHT22;14983;50.866;4.304;2022-07-26T01:21:54;17.00;99.90
14405;DHT22;14983;50.866;4.304;2022-07-26T01:24:21;16.90;99.90
14405;DHT22;14983;50.866;4.304;2022-07-26T01:26:50;16.80;99.90
14405;DHT22;14983;50.866;4.304;2022-07-26T01:29:19;16.90;99.90
14405;DHT22;14983;50.866;4.304;2022-07-26T01:31:49;16.80;99.90
14405;DHT22;14983;50.866;4.304;2022-07-26T01:34:19;16.80;99.90
14405;DHT22;14983;50.866;4.304;2022-07-26T01:36:48;16.80;99.90
14405;DHT22;14983;50.866;4.304;2022-07-26T01:39:20;16.90;99.90
14405;DHT22;14983;50.866;4.304;2022-07-26T01:41:48;16.80;99.90
14405;DHT22;14983;50.866;4.304;2022-07-26T01:44:16;16.40;99.90
14405;DHT22;14983;50.866;4.304;2022-07-26T01:46:49;16.90;99.90
14405;DHT22;14983;50.866;4.304;2022-07-26T01:49:17;17.00;99.90
14405;DHT22;14983;50.866;4.304;2022-07-26T01:51:45;17.00;99.90
14405;DHT22;14983;50.866;4.304;2022-07-26T01:54:13;17.00;99.90
14405;DHT22;14983;50.866;4.304;2022-07-26T01:56:43;17.00;99.90
14405;DHT22;14983;50.866;4.304;2022-07-26T01:59:12;17.00;99.90
14405;DHT22;14983;50.866;4.304;2022-07-26T02:01:41;16.70;99.90
14405;DHT22;14983;50.866;4.304;2022-07-26T02:04:10;17.00;99.90
14405;DHT22;14983;50.866;4.304;2022-07-26T02:06:59;16.90;99.90
14405;DHT22;14983;50.866;4.304;2022-07-26T02:09:30;16.90;99.90
14405;DHT22;14983;50.866;4.304;2022-07-26T02:12:06;17.00;99.90
14405;DHT22;14983;50.866;4.304;2022-07-26T02:14:35;17.00;99.90
14405;DHT22;14983;50.866;4.304;2022-07-26T02:17:03;17.40;99.90
14405;DHT22;14983;50.866;4.304;2022-07-26T02:19:31;17.00;99.90
14405;DHT22;14983;50.866;4.304;2022-07-26T02:22:02;17.00;99.90
14405;DHT22;14983;50.866;4.304;2022-07-26T02:24:35;17.00;99.90
14405;DHT22;14983;50.866;4.304;2022-07-26T02:27:07;16.90;99.90
14405;DHT22;14983;50.866;4.304;2022-07-26T02:29:37;16.90;99.90
14405;DHT22;14983;50.866;4.304;2022-07-26T02:32:15;17.00;99.90
14405;DHT22;14983;50.866;4.304;2022-07-26T02:34:43;17.00;99.90
14405;DHT22;14983;50.866;4.304;2022-07-26T02:37:10;17.00;99.90
14405;DHT22;14983;50.866;4.304;2022-07-26T02:39:37;17.80;99.90
14405;DHT22;14983;50.866;4.304;2022-07-26T02:42:09;17.10;99.90
14405;DHT22;14983;50.866;4.304;2022-07-26T02:44:37;17.10;99.90
14405;DHT22;14983;50.866;4.304;2022-07-26T02:47:06;17.10;99.90
14405;DHT22;14983;50.866;4.304;2022-07-26T02:49:35;17.10;99.90
14405;DHT22;14983;50.866;4.304;2022-07-26T02:52:02;17.10;99.90
14405;DHT22;14983;50.866;4.304;2022-07-26T02:54:29;17.00;99.90
14405;DHT22;14983;50.866;4.304;2022-07-26T02:57:03;17.10;99.90
14405;DHT22;14983;50.866;4.304;2022-07-26T02:59:31;17.10;99.90
14405;DHT22;14983;50.866;4.304;2022-07-26T03:02:00;17.10;99.90
14405;DHT22;14983;50.866;4.304;2022-07-26T03:04:27;17.10;99.90
14405;DHT22;14983;50.866;4.304;2022-07-26T03:06:58;17.10;99.90
14405;DHT22;14983;50.866;4.304;2022-07-26T03:09:25;17.10;99.90
14405;DHT22;14983;50.866;4.304;2022-07-26T03:11:56;17.00;99.90
14405;DHT22;14983;50.866;4.304;2022-07-26T03:14:24;17.00;99.90
14405;DHT22;14983;50.866;4.304;2022-07-26T03:16:59;17.00;99.90
14405;DHT22;14983;50.866;4.304;2022-07-26T03:19:28;17.10;99.90
14405;DHT22;14983;50.866;4.304;2022-07-26T03:22:07;17.10;99.90
14405;DHT22;14983;50.866;4.304;2022-07-26T03:24:53;17.60;99.90
14405;DHT22;14983;50.866;4.304;2022-07-26T03:27:22;18.30;99.90
14405;DHT22;14983;50.866;4.304;2022-07-26T03:29:51;17.10;99.90
14405;DHT22;14983;50.866;4.304;2022-07-26T03:32:26;17.10;99.90
14405;DHT22;14983;50.866;4.304;2022-07-26T03:34:54;17.20;99.90
14405;DHT22;14983;50.866;4.304;2022-07-26T03:37:22;17.20;99.90
14405;DHT22;14983;50.866;4.304;2022-07-26T03:39:49;17.10;99.90
14405;DHT22;14983;50.866;4.304;2022-07-26T03:42:18;17.10;99.90
14405;DHT22;14983;50.866;4.304;2022-07-26T03:44:48;17.00;99.90
14405;DHT22;14983;50.866;4.304;2022-07-26T03:47:21;17.10;99.90
14405;DHT22;14983;50.866;4.304;2022-07-26T03:49:56;17.00;99.90
14405;DHT22;14983;50.866;4.304;2022-07-26T03:52:32;17.00;99.90
14405;DHT22;14983;50.866;4.304;2022-07-26T03:54:59;17.00;99.90
14405;DHT22;14983;50.866;4.304;2022-07-26T03:57:47;17.00;99.90
14405;DHT22;14983;50.866;4.304;2022-07-26T04:00:14;17.00;99.90
14405;DHT22;14983;50.866;4.304;2022-07-26T04:02:44;16.90;99.90
14405;DHT22;14983;50.866;4.304;2022-07-26T04:05:18;16.90;99.90
14405;DHT22;14983;50.866;4.304;2022-07-26T04:07:46;16.90;99.90
14405;DHT22;14983;50.866;4.304;2022-07-26T04:10:18;16.90;99.90
14405;DHT22;14983;50.866;4.304;2022-07-26T04:12:45;16.80;99.90
14405;DHT22;14983;50.866;4.304;2022-07-26T04:15:18;16.80;99.90
14405;DHT22;14983;50.866;4.304;2022-07-26T04:17:48;16.80;99.90
14405;DHT22;14983;50.866;4.304;2022-07-26T04:20:16;16.80;99.90
14405;DHT22;14983;50.866;4.304;2022-07-26T04:22:45;16.70;99.90
14405;DHT22;14983;50.866;4.304;2022-07-26T04:25:14;16.70;99.90
14405;DHT22;14983;50.866;4.304;2022-07-26T04:27:43;16.80;99.90
14405;DHT22;14983;50.866;4.304;2022-07-26T04:30:11;16.70;99.90
14405;DHT22;14983;50.866;4.304;2022-07-26T04:32:38;16.70;99.90
14405;DHT22;14983;50.866;4.304;2022-07-26T04:35:06;16.70;99.90
14405;DHT22;14983;50.866;4.304;2022-07-26T04:37:38;16.80;99.90
14405;DHT22;14983;50.866;4.304;2022-07-26T04:40:17;16.80;99.90
14405;DHT22;14983;50.866;4.304;2022-07-26T04:42:45;16.70;99.90
14405;DHT22;14983;50.866;4.304;2022-07-26T04:45:13;16.70;99.90
14405;DHT22;14983;50.866;4.304;2022-07-26T04:47:47;16.80;99.90
14405;DHT22;14983;50.866;4.304;2022-07-26T04:50:15;16.80;99.90
14405;DHT22;14983;50.866;4.304;2022-07-26T04:52:42;16.90;99.90
14405;DHT22;14983;50.866;4.304;2022-07-26T04:55:13;16.90;99.90
14405;DHT22;14983;50.866;4.304;2022-07-26T04:57:46;16.80;99.90
14405;DHT22;14983;50.866;4.304;2022-07-26T05:00:15;16.90;99.90
14405;DHT22;14983;50.866;4.304;2022-07-26T05:02:53;16.90;99.90
14405;DHT22;14983;50.866;4.304;2022-07-26T05:05:22;16.90;99.90
14405;DHT22;14983;50.866;4.304;2022-07-26T05:07:53;16.90;99.90
14405;DHT22;14983;50.866;4.304;2022-07-26T05:10:28;17.00;99.90
14405;DHT22;14983;50.866;4.304;2022-07-26T05:12:55;17.00;99.90
14405;DHT22;14983;50.866;4.304;2022-07-26T05:15:24;17.00;99.90
14405;DHT22;14983;50.866;4.304;2022-07-26T05:17:54;16.90;99.90
14405;DHT22;14983;50.866;4.304;2022-07-26T05:20:30;17.00;99.90
14405;DHT22;14983;50.866;4.304;2022-07-26T05:22:58;17.10;99.90
14405;DHT22;14983;50.866;4.304;2022-07-26T05:25:36;17.10;99.90
14405;DHT22;14983;50.866;4.304;2022-07-26T05:28:08;17.00;99.90
14405;DHT22;14983;50.866;4.304;2022-07-26T05:30:36;17.10;99.90
14405;DHT22;14983;50.866;4.304;2022-07-26T05:33:04;15.90;99.90
14405;DHT22;14983;50.866;4.304;2022-07-26T05:35:37;17.10;99.90
14405;DHT22;14983;50.866;4.304;2022-07-26T05:38:04;17.10;99.90
14405;DHT22;14983;50.866;4.304;2022-07-26T05:40:31;17.10;99.90
14405;DHT22;14983;50.866;4.304;2022-07-26T05:43:02;17.40;99.90
14405;DHT22;14983;50.866;4.304;2022-07-26T05:45:29;17.40;99.90
14405;DHT22;14983;50.866;4.304;2022-07-26T05:47:56;17.50;99.90
14405;DHT22;14983;50.866;4.304;2022-07-26T05:50:23;17.50;99.90
14405;DHT22;14983;50.866;4.304;2022-07-26T05:52:50;17.70;99.90
14405;DHT22;14983;50.866;4.304;2022-07-26T05:55:23;17.80;99.90
14405;DHT22;14983;50.866;4.304;2022-07-26T05:57:51;18.00;99.90
14405;DHT22;14983;50.866;4.304;2022-07-26T06:00:21;18.10;99.90
14405;DHT22;14983;50.866;4.304;2022-07-26T06:02:48;18.30;99.90
14405;DHT22;14983;50.866;4.304;2022-07-26T06:05:17;18.60;99.90
14405;DHT22;14983;50.866;4.304;2022-07-26T06:07:52;18.20;99.90
14405;DHT22;14983;50.866;4.304;2022-07-26T06:10:48;18.30;99.90
14405;DHT22;14983;50.866;4.304;2022-07-26T06:13:16;18.30;99.90
14405;DHT22;14983;50.866;4.304;2022-07-26T06:15:44;18.20;99.90
14405;DHT22;14983;50.866;4.304;2022-07-26T06:18:12;18.20;99.90
14405;DHT22;14983;50.866;4.304;2022-07-26T06:20:39;18.10;99.90
14405;DHT22;14983;50.866;4.304;2022-07-26T06:23:07;18.10;99.90
14405;DHT22;14983;50.866;4.304;2022-07-26T06:25:35;18.10;99.90
14405;DHT22;14983;50.866;4.304;2022-07-26T06:28:03;18.10;99.90
14405;DHT22;14983;50.866;4.304;2022-07-26T06:30:30;17.90;99.90
14405;DHT22;14983;50.866;4.304;2022-07-26T06:33:02;17.90;99.90
14405;DHT22;14983;50.866;4.304;2022-07-26T06:35:37;18.00;99.90
14405;DHT22;14983;50.866;4.304;2022-07-26T06:38:06;18.00;99.90
14405;DHT22;14983;50.866;4.304;2022-07-26T06:40:34;18.10;99.90
14405;DHT22;14983;50.866;4.304;2022-07-26T06:43:02;18.20;99.90
14405;DHT22;14983;50.866;4.304;2022-07-26T06:45:29;18.10;99.90
14405;DHT22;14983;50.866;4.304;2022-07-26T06:47:56;19.50;99.90
14405;DHT22;14983;50.866;4.304;2022-07-26T06:50:24;18.00;99.90
14405;DHT22;14983;50.866;4.304;2022-07-26T06:52:51;18.90;99.90
14405;DHT22;14983;50.866;4.304;2022-07-26T06:55:18;18.00;99.90
14405;DHT22;14983;50.866;4.304;2022-07-26T06:57:45;17.90;99.90
14405;DHT22;14983;50.866;4.304;2022-07-26T07:00:13;18.00;99.90
14405;DHT22;14983;50.866;4.304;2022-07-26T07:02:51;17.90;99.90
14405;DHT22;14983;50.866;4.304;2022-07-26T07:05:23;17.90;99.90
14405;DHT22;14983;50.866;4.304;2022-07-26T07:07:55;17.80;99.90
14405;DHT22;14983;50.866;4.304;2022-07-26T07:10:22;17.90;99.90
14405;DHT22;14983;50.866;4.304;2022-07-26T07:12:49;18.00;99.90
14405;DHT22;14983;50.866;4.304;2022-07-26T07:15:16;18.00;99.90
14405;DHT22;14983;50.866;4.304;2022-07-26T07:17:43;18.10;99.90
14405;DHT22;14983;50.866;4.304;2022-07-26T07:20:15;18.10;99.90
14405;DHT22;14983;50.866;4.304;2022-07-26T07:22:44;18.00;99.90
14405;DHT22;14983;50.866;4.304;2022-07-26T07:25:11;18.00;99.90
14405;DHT22;14983;50.866;4.304;2022-07-26T07:27:38;18.10;99.90
14405;DHT22;14983;50.866;4.304;2022-07-26T07:30:06;18.20;99.90
14405;DHT22;14983;50.866;4.304;2022-07-26T07:32:43;18.10;99.90
14405;DHT22;14983;50.866;4.304;2022-07-26T07:35:10;18.10;99.90
14405;DHT22;14983;50.866;4.304;2022-07-26T07:37:37;18.20;99.90
14405;DHT22;14983;50.866;4.304;2022-07-26T07:40:07;18.30;99.90
14405;DHT22;14983;50.866;4.304;2022-07-26T07:42:34;18.40;99.90
14405;DHT22;14983;50.866;4.304;2022-07-26T07:48:16;18.70;1.00
14405;DHT22;14983;50.866;4.304;2022-07-26T07:50:43;18.50;1.00
14405;DHT22;14983;50.866;4.304;2022-07-26T07:53:10;18.60;1.00
14405;DHT22;14983;50.866;4.304;2022-07-26T07:55:39;18.70;1.00
14405;DHT22;14983;50.866;4.304;2022-07-26T07:58:06;18.90;99.90
14405;DHT22;14983;50.866;4.304;2022-07-26T08:00:33;19.10;1.00
14405;DHT22;14983;50.866;4.304;2022-07-26T08:03:00;19.10;1.00
14405;DHT22;14983;50.866;4.304;2022-07-26T08:05:27;19.10;1.00
14405;DHT22;14983;50.866;4.304;2022-07-26T08:07:54;18.90;1.00
14405;DHT22;14983;50.866;4.304;2022-07-26T08:10:21;19.10;1.00
14405;DHT22;14983;50.866;4.304;2022-07-26T08:12:49;19.10;1.00
14405;DHT22;14983;50.866;4.304;2022-07-26T08:15:18;19.30;99.90
14405;DHT22;14983;50.866;4.304;2022-07-26T08:17:46;19.00;99.90
14405;DHT22;14983;50.866;4.304;2022-07-26T08:20:15;19.10;99.90
14405;DHT22;14983;50.866;4.304;2022-07-26T08:22:56;19.10;54.90
14405;DHT22;14983;50.866;4.304;2022-07-26T08:25:23;19.20;1.00
14405;DHT22;14983;50.866;4.304;2022-07-26T08:27:54;18.90;99.90
14405;DHT22;14983;50.866;4.304;2022-07-26T08:30:21;19.10;64.00
14405;DHT22;14983;50.866;4.304;2022-07-26T08:32:48;19.30;1.00
14405;DHT22;14983;50.866;4.304;2022-07-26T08:35:15;19.50;99.90
14405;DHT22;14983;50.866;4.304;2022-07-26T08:37:42;19.60;99.90
14405;DHT22;14983;50.866;4.304;2022-07-26T08:40:09;20.00;1.00
14405;DHT22;14983;50.866;4.304;2022-07-26T08:42:36;20.00;99.90
14405;DHT22;14983;50.866;4.304;2022-07-26T08:45:08;20.20;99.90
14405;DHT22;14983;50.866;4.304;2022-07-26T08:47:36;20.20;1.00
14405;DHT22;14983;50.866;4.304;2022-07-26T08:50:08;20.20;1.00
14405;DHT22;14983;50.866;4.304;2022-07-26T08:52:38;20.10;1.00
14405;DHT22;14983;50.866;4.304;2022-07-26T08:55:06;20.20;99.90
14405;DHT22;14983;50.866;4.304;2022-07-26T08:57:33;20.20;1.00
14405;DHT22;14983;50.866;4.304;2022-07-26T09:00:15;20.40;1.00
14405;DHT22;14983;50.866;4.304;2022-07-26T09:02:42;20.30;1.00
14405;DHT22;14983;50.866;4.304;2022-07-26T09:05:10;20.10;99.90
14405;DHT22;14983;50.866;4.304;2022-07-26T09:07:38;20.10;1.00
14405;DHT22;14983;50.866;4.304;2022-07-26T09:10:07;20.20;1.00
14405;DHT22;14983;50.866;4.304;2022-07-26T09:12:34;20.50;1.00
14405;DHT22;14983;50.866;4.304;2022-07-26T09:15:04;20.70;1.00
14405;DHT22;14983;50.866;4.304;2022-07-26T09:17:41;20.70;1.00
14405;DHT22;14983;50.866;4.304;2022-07-26T09:20:11;20.80;1.00
14405;DHT22;14983;50.866;4.304;2022-07-26T09:22:55;20.80;1.00
14405;DHT22;14983;50.866;4.304;2022-07-26T09:25:24;20.80;90.00
14405;DHT22;14983;50.866;4.304;2022-07-26T09:27:51;20.60;1.00
14405;DHT22;14983;50.866;4.304;2022-07-26T09:30:18;21.00;99.90
14405;DHT22;14983;50.866;4.304;2022-07-26T09:32:57;20.90;1.00
14405;DHT22;14983;50.866;4.304;2022-07-26T09:35:25;21.20;99.90
14405;DHT22;14983;50.866;4.304;2022-07-26T09:37:52;20.90;1.00
14405;DHT22;14983;50.866;4.304;2022-07-26T09:40:19;20.80;1.00
14405;DHT22;14983;50.866;4.304;2022-07-26T09:42:54;20.90;1.00
14405;DHT22;14983;50.866;4.304;2022-07-26T09:45:22;21.20;1.00
14405;DHT22;14983;50.866;4.304;2022-07-26T09:47:50;21.30;99.90
14405;DHT22;14983;50.866;4.304;2022-07-26T09:50:19;21.50;35.70
14405;DHT22;14983;50.866;4.304;2022-07-26T09:52:57;21.70;1.00
14405;DHT22;14983;50.866;4.304;2022-07-26T09:55:24;21.40;99.90
14405;DHT22;14983;50.866;4.304;2022-07-26T09:57:52;21.30;90.20
14405;DHT22;14983;50.866;4.304;2022-07-26T10:00:20;21.50;99.90
14405;DHT22;14983;50.866;4.304;2022-07-26T10:02:50;21.60;1.00
14405;DHT22;14983;50.866;4.304;2022-07-26T10:05:20;21.70;1.00
14405;DHT22;14983;50.866;4.304;2022-07-26T10:07:48;21.90;1.00
14405;DHT22;14983;50.866;4.304;2022-07-26T10:10:20;22.00;1.00
14405;DHT22;14983;50.866;4.304;2022-07-26T10:12:49;22.40;99.90
14405;DHT22;14983;50.866;4.304;2022-07-26T10:15:36;22.20;99.90
14405;DHT22;14983;50.866;4.304;2022-07-26T10:18:07;22.40;1.00
14405;DHT22;14983;50.866;4.304;2022-07-26T10:20:45;22.50;99.90
14405;DHT22;14983;50.866;4.304;2022-07-26T10:23:32;22.40;99.90
14405;DHT22;14983;50.866;4.304;2022-07-26T10:25:59;22.60;99.90
14405;DHT22;14983;50.866;4.304;2022-07-26T10:28:31;22.30;99.90
14405;DHT22;14983;50.866;4.304;2022-07-26T10:31:24;22.10;99.90
14405;DHT22;14983;50.866;4.304;2022-07-26T10:33:56;21.70;1.00
14405;DHT22;14983;50.866;4.304;2022-07-26T10:36:34;21.50;1.00
14405;DHT22;14983;50.866;4.304;2022-07-26T10:39:19;21.50;1.00
14405;DHT22;14983;50.866;4.304;2022-07-26T10:41:58;22.20;1.00
14405;DHT22;14983;50.866;4.304;2022-07-26T10:44:26;21.50;99.90
14405;DHT22;14983;50.866;4.304;2022-07-26T10:47:21;22.20;99.90
14405;DHT22;14983;50.866;4.304;2022-07-26T10:49:54;21.80;99.90
14405;DHT22;14983;50.866;4.304;2022-07-26T10:52:31;22.10;99.90
14405;DHT22;14983;50.866;4.304;2022-07-26T10:55:08;20.90;85.50
14405;DHT22;14983;50.866;4.304;2022-07-26T10:57:37;22.20;99.90
14405;DHT22;14983;50.866;4.304;2022-07-26T11:00:21;22.20;1.00
14405;DHT22;14983;50.866;4.304;2022-07-26T11:02:57;22.00;39.80
14405;DHT22;14983;50.866;4.304;2022-07-26T11:05:28;21.90;99.90
14405;DHT22;14983;50.866;4.304;2022-07-26T11:08:08;21.60;1.00
14405;DHT22;14983;50.866;4.304;2022-07-26T11:10:37;21.60;1.00
14405;DHT22;14983;50.866;4.304;2022-07-26T11:13:09;21.80;1.00
14405;DHT22;14983;50.866;4.304;2022-07-26T11:15:57;22.20;99.90
14405;DHT22;14983;50.866;4.304;2022-07-26T11:18:37;22.70;1.00
14405;DHT22;14983;50.866;4.304;2022-07-26T11:21:12;22.70;1.00
14405;DHT22;14983;50.866;4.304;2022-07-26T11:23:50;22.20;1.00
14405;DHT22;14983;50.866;4.304;2022-07-26T11:26:22;23.00;1.00
14405;DHT22;14983;50.866;4.304;2022-07-26T11:29:06;23.40;99.90
14405;DHT22;14983;50.866;4.304;2022-07-26T11:31:38;23.50;99.90
14405;DHT22;14983;50.866;4.304;2022-07-26T11:34:22;23.40;99.90
14405;DHT22;14983;50.866;4.304;2022-07-26T11:37:05;23.60;99.90
14405;DHT22;14983;50.866;4.304;2022-07-26T11:39:41;23.30;99.90
14405;DHT22;14983;50.866;4.304;2022-07-26T11:42:12;22.90;99.90
14405;DHT22;14983;50.866;4.304;2022-07-26T11:44:42;23.20;99.90
14405;DHT22;14983;50.866;4.304;2022-07-26T11:47:24;23.50;99.90
14405;DHT22;14983;50.866;4.304;2022-07-26T11:49:54;23.50;99.90
14405;DHT22;14983;50.866;4.304;2022-07-26T11:52:34;22.80;99.90
14405;DHT22;14983;50.866;4.304;2022-07-26T11:55:10;22.60;1.00
14405;DHT22;14983;50.866;4.304;2022-07-26T11:57:40;22.30;31.50
14405;DHT22;14983;50.866;4.304;2022-07-26T12:02:39;22.10;99.90
14405;DHT22;14983;50.866;4.304;2022-07-26T12:05:19;22.50;99.90
14405;DHT22;14983;50.866;4.304;2022-07-26T12:11:36;22.90;1.00
14405;DHT22;14983;50.866;4.304;2022-07-26T12:17:28;21.90;99.90
14405;DHT22;14983;50.866;4.304;2022-07-26T12:19:55;21.90;99.90
14405;DHT22;14983;50.866;4.304;2022-07-26T12:25:45;22.10;61.30
14405;DHT22;14983;50.866;4.304;2022-07-26T12:28:15;21.60;99.90
14405;DHT22;14983;50.866;4.304;2022-07-26T12:30:43;22.00;99.90
14405;DHT22;14983;50.866;4.304;2022-07-26T12:33:13;22.10;99.90
14405;DHT22;14983;50.866;4.304;2022-07-26T12:35:40;22.20;1.00
14405;DHT22;14983;50.866;4.304;2022-07-26T12:38:08;21.90;99.90
14405;DHT22;14983;50.866;4.304;2022-07-26T12:40:40;22.00;99.90
14405;DHT22;14983;50.866;4.304;2022-07-26T12:43:07;22.20;1.00
14405;DHT22;14983;50.866;4.304;2022-07-26T12:45:36;22.00;98.80
14405;DHT22;14983;50.866;4.304;2022-07-26T12:48:06;22.10;1.00
14405;DHT22;14983;50.866;4.304;2022-07-26T12:50:36;22.20;1.00
14405;DHT22;14983;50.866;4.304;2022-07-26T12:53:05;22.40;1.00
14405;DHT22;14983;50.866;4.304;2022-07-26T12:55:35;22.70;99.90
14405;DHT22;14983;50.866;4.304;2022-07-26T12:58:02;22.80;99.90
14405;DHT22;14983;50.866;4.304;2022-07-26T13:00:30;22.80;99.90
14405;DHT22;14983;50.866;4.304;2022-07-26T13:03:04;22.50;1.00
14405;DHT22;14983;50.866;4.304;2022-07-26T13:05:32;22.40;1.00
14405;DHT22;14983;50.866;4.304;2022-07-26T13:07:59;22.30;1.00
14405;DHT22;14983;50.866;4.304;2022-07-26T13:10:26;22.00;99.90
14405;DHT22;14983;50.866;4.304;2022-07-26T13:12:54;21.80;99.90
14405;DHT22;14983;50.866;4.304;2022-07-26T13:15:21;21.90;99.90
14405;DHT22;14983;50.866;4.304;2022-07-26T13:17:49;22.00;1.00
14405;DHT22;14983;50.866;4.304;2022-07-26T13:20:19;21.60;19.90
14405;DHT22;14983;50.866;4.304;2022-07-26T13:22:47;21.40;99.90
14405;DHT22;14983;50.866;4.304;2022-07-26T13:25:16;21.40;1.00
14405;DHT22;14983;50.866;4.304;2022-07-26T13:27:44;21.30;78.90
14405;DHT22;14983;50.866;4.304;2022-07-26T13:30:12;21.20;10.30
14405;DHT22;14983;50.866;4.304;2022-07-26T13:32:40;21.20;99.90
14405;DHT22;14983;50.866;4.304;2022-07-26T13:35:09;21.00;1.00
14405;DHT22;14983;50.866;4.304;2022-07-26T13:37:38;20.90;1.00
14405;DHT22;14983;50.866;4.304;2022-07-26T13:40:06;20.80;1.00
14405;DHT22;14983;50.866;4.304;2022-07-26T13:42:35;20.70;1.00
14405;DHT22;14983;50.866;4.304;2022-07-26T13:45:04;20.90;1.00
14405;DHT22;14983;50.866;4.304;2022-07-26T13:47:31;20.80;1.00
14405;DHT22;14983;50.866;4.304;2022-07-26T13:49:59;20.90;1.00
14405;DHT22;14983;50.866;4.304;2022-07-26T13:52:26;21.00;1.00
14405;DHT22;14983;50.866;4.304;2022-07-26T13:54:56;21.00;1.00
14405;DHT22;14983;50.866;4.304;2022-07-26T13:57:23;21.10;1.00
14405;DHT22;14983;50.866;4.304;2022-07-26T13:59:52;21.20;1.00
14405;DHT22;14983;50.866;4.304;2022-07-26T14:02:22;21.50;99.90
14405;DHT22;14983;50.866;4.304;2022-07-26T14:04:52;21.50;59.80
14405;DHT22;14983;50.866;4.304;2022-07-26T14:07:26;21.40;99.90
14405;DHT22;14983;50.866;4.304;2022-07-26T14:09:56;21.40;99.90
14405;DHT22;14983;50.866;4.304;2022-07-26T14:12:23;21.30;99.90
14405;DHT22;14983;50.866;4.304;2022-07-26T14:14:50;21.40;99.90
14405;DHT22;14983;50.866;4.304;2022-07-26T14:17:19;21.20;99.90
14405;DHT22;14983;50.866;4.304;2022-07-26T14:19:51;21.40;99.90
14405;DHT22;14983;50.866;4.304;2022-07-26T14:22:18;21.60;99.90
14405;DHT22;14983;50.866;4.304;2022-07-26T14:24:45;21.90;24.60
14405;DHT22;14983;50.866;4.304;2022-07-26T14:27:14;21.80;1.00
14405;DHT22;14983;50.866;4.304;2022-07-26T14:29:41;21.70;32.50
14405;DHT22;14983;50.866;4.304;2022-07-26T14:32:13;21.80;1.00
14405;DHT22;14983;50.866;4.304;2022-07-26T14:34:40;21.70;1.00
14405;DHT22;14983;50.866;4.304;2022-07-26T14:37:08;21.50;99.90
14405;DHT22;14983;50.866;4.304;2022-07-26T14:39:35;21.40;99.90
14405;DHT22;14983;50.866;4.304;2022-07-26T14:42:03;21.40;99.90
14405;DHT22;14983;50.866;4.304;2022-07-26T14:44:35;21.40;99.90
14405;DHT22;14983;50.866;4.304;2022-07-26T14:47:04;21.60;99.90
14405;DHT22;14983;50.866;4.304;2022-07-26T14:49:34;21.50;99.90
14405;DHT22;14983;50.866;4.304;2022-07-26T14:52:02;21.60;99.90
14405;DHT22;14983;50.866;4.304;2022-07-26T14:54:30;21.90;25.90
14405;DHT22;14983;50.866;4.304;2022-07-26T14:56:59;21.90;13.20
14405;DHT22;14983;50.866;4.304;2022-07-26T14:59:31;21.80;1.00
14405;DHT22;14983;50.866;4.304;2022-07-26T15:02:05;21.90;1.00
14405;DHT22;14983;50.866;4.304;2022-07-26T15:04:32;22.10;1.00
14405;DHT22;14983;50.866;4.304;2022-07-26T15:07:00;22.00;1.00
14405;DHT22;14983;50.866;4.304;2022-07-26T15:09:28;21.60;25.20
14405;DHT22;14983;50.866;4.304;2022-07-26T15:11:59;21.20;1.00
14405;DHT22;14983;50.866;4.304;2022-07-26T15:14:33;21.30;99.90
14405;DHT22;14983;50.866;4.304;2022-07-26T15:17:01;21.40;80.70
14405;DHT22;14983;50.866;4.304;2022-07-26T15:19:31;21.60;1.00
14405;DHT22;14983;50.866;4.304;2022-07-26T15:22:06;21.70;1.00
14405;DHT22;14983;50.866;4.304;2022-07-26T15:24:37;21.70;1.00
14405;DHT22;14983;50.866;4.304;2022-07-26T15:27:04;21.80;1.00
14405;DHT22;14983;50.866;4.304;2022-07-26T15:29:31;21.90;1.00
14405;DHT22;14983;50.866;4.304;2022-07-26T15:32:01;22.00;1.00
14405;DHT22;14983;50.866;4.304;2022-07-26T15:34:30;22.00;1.00
14405;DHT22;14983;50.866;4.304;2022-07-26T15:37:00;21.90;1.00
14405;DHT22;14983;50.866;4.304;2022-07-26T15:39:27;21.80;1.00
14405;DHT22;14983;50.866;4.304;2022-07-26T15:41:54;21.90;1.00
14405;DHT22;14983;50.866;4.304;2022-07-26T15:44:27;21.60;1.00
14405;DHT22;14983;50.866;4.304;2022-07-26T15:47:00;21.60;1.00
14405;DHT22;14983;50.866;4.304;2022-07-26T15:49:29;21.60;1.00
14405;DHT22;14983;50.866;4.304;2022-07-26T15:51:58;21.50;1.00
14405;DHT22;14983;50.866;4.304;2022-07-26T15:54:29;21.70;1.00
14405;DHT22;14983;50.866;4.304;2022-07-26T15:56:56;21.80;1.00
14405;DHT22;14983;50.866;4.304;2022-07-26T15:59:23;22.10;1.00
14405;DHT22;14983;50.866;4.304;2022-07-26T16:01:54;21.80;1.00
14405;DHT22;14983;50.866;4.304;2022-07-26T16:04:22;21.80;1.00
14405;DHT22;14983;50.866;4.304;2022-07-26T16:06:53;21.60;1.00
14405;DHT22;14983;50.866;4.304;2022-07-26T16:09:20;21.30;99.90
14405;DHT22;14983;50.866;4.304;2022-07-26T16:11:57;21.10;99.90